KELK/ELK METAR and TAF weather

Enter ICAO airport designator
Station Type Date Time Source
KELK METAR 2022/01/29 10:55 UTC NOAA

KELK 291055Z AUTO 00000KT 10SM CLR 03/M11 A3029 RMK AO2 T00261115


Station Type Date Time Source
KELK Decoded METAR 2022/01/29 10:55 UTC NOAA

Station name not available
Jan 29, 2022 - 05:55 AM EST / 2022.01.29 1055 UTC
Wind: Calm:0
Visibility: 10 mile(s):0
Sky conditions: clear
Temperature: 36.7 F (2.6 C)
Dew Point: 11.3 F (-11.5 C)
Relative Humidity: 34%
Pressure (altimeter): 30.29 in. Hg (1025 hPa)
ob: KELK 291055Z AUTO 00000KT 10SM CLR 03/M11 A3029 RMK AO2 T00261115
cycle: 11

Station Type Date Time Source
KELK TAF UTC NOAA

Error!

Example: see airport list